Time;durP1;ratioP1;P1;durP2;ratioP2;P2;SDS_P1;SDS_P2;PMS_P1;PMS_P2;Temp;Humidity;BMP_temperature;BMP_pressure;BME280_temperature;BME280_humidity;BME280_pressure;Samples;Min_cycle;Max_cycle;Signal;HPM_P1;HPM_P2
2021/07/19 00:01:16;;;;;;;8.70;5.03;;;21.40;99.90;;;;;;5052843;28;20444;-54
2021/07/19 00:03:43;;;;;;;4.90;4.33;;;21.40;99.90;;;;;;5052970;28;20445;-53
2021/07/19 00:06:10;;;;;;;5.90;4.50;;;21.20;99.90;;;;;;5052705;28;20444;-54
2021/07/19 00:08:38;;;;;;;6.80;4.07;;;21.30;99.90;;;;;;5052492;28;20429;-54
2021/07/19 00:11:05;;;;;;;7.37;4.70;;;21.30;99.90;;;;;;5052615;28;20893;-53
2021/07/19 00:13:32;;;;;;;7.70;4.30;;;21.30;99.90;;;;;;5052533;28;20946;-53
2021/07/19 00:15:59;;;;;;;8.83;4.37;;;21.00;99.90;;;;;;5052420;28;20491;-53
2021/07/19 00:18:25;;;;;;;5.43;4.27;;;21.30;99.90;;;;;;5052135;28;20781;-54
2021/07/19 00:20:52;;;;;;;6.90;4.43;;;21.20;99.90;;;;;;5052440;28;20902;-54
2021/07/19 00:23:19;;;;;;;5.40;4.10;;;21.20;99.80;;;;;;5052374;28;20570;-53
2021/07/19 00:25:47;;;;;;;7.27;4.40;;;21.10;99.60;;;;;;5052287;28;20440;-54
2021/07/19 00:28:13;;;;;;;9.40;3.90;;;20.90;99.50;;;;;;5051874;28;20446;-54
2021/07/19 00:30:42;;;;;;;9.30;5.00;;;21.10;99.60;;;;;;5052346;28;20515;-54
2021/07/19 00:33:10;;;;;;;8.10;4.27;;;20.80;99.30;;;;;;5033904;28;20478;-53
2021/07/19 00:35:37;;;;;;;7.03;5.33;;;20.90;99.40;;;;;;5052282;28;20483;-54
2021/07/19 00:38:04;;;;;;;7.43;4.30;;;20.70;99.30;;;;;;5052010;28;20554;-53
2021/07/19 00:40:32;;;;;;;6.00;5.10;;;20.70;99.40;;;;;;5052088;28;20437;-54
2021/07/19 00:43:00;;;;;;;6.47;4.73;;;20.90;99.40;;;;;;5034062;28;20487;-54
2021/07/19 00:45:28;;;;;;;8.43;4.70;;;20.90;99.40;;;;;;5034026;28;20454;-54
2021/07/19 00:47:57;;;;;;;11.03;4.97;;;20.90;99.30;;;;;;5034169;28;20453;-54
2021/07/19 00:50:25;;;;;;;7.13;5.30;;;20.90;99.20;;;;;;5033862;28;21023;-54
2021/07/19 00:52:57;;;;;;;7.77;4.90;;;20.80;99.00;;;;;;5033783;28;20491;-54
2021/07/19 00:55:30;;;;;;;6.47;5.20;;;20.70;98.90;;;;;;5033730;28;20468;-54
2021/07/19 00:57:58;;;;;;;6.33;5.10;;;20.80;99.20;;;;;;5033621;28;20460;-54
2021/07/19 01:00:28;;;;;;;5.87;4.87;;;20.80;98.90;;;;;;5033450;28;20505;-54
2021/07/19 01:02:56;;;;;;;7.50;5.60;;;20.60;98.60;;;;;;5033828;28;20469;-53
2021/07/19 01:05:26;;;;;;;7.90;5.97;;;20.50;98.60;;;;;;5052116;28;20617;-54
2021/07/19 01:07:55;;;;;;;7.53;5.73;;;20.60;98.50;;;;;;5034243;28;20461;-53
2021/07/19 01:10:25;;;;;;;8.60;6.27;;;20.50;98.50;;;;;;5052053;28;20459;-53
2021/07/19 01:12:55;;;;;;;9.70;6.60;;;20.40;98.40;;;;;;5034049;28;20467;-53
2021/07/19 01:15:29;;;;;;;10.10;6.23;;;20.20;98.30;;;;;;5034085;28;20476;-53
2021/07/19 01:17:57;;;;;;;8.10;6.33;;;20.30;98.30;;;;;;5052047;28;20752;-54
2021/07/19 01:20:29;;;;;;;10.87;6.53;;;20.10;98.30;;;;;;5033519;28;20459;-53
2021/07/19 01:23:24;;;;;;;7.50;5.63;;;20.30;98.50;;;;;;5051825;28;20452;-53
2021/07/19 01:26:24;;;;;;;10.77;6.40;;;20.30;98.60;;;;;;5051713;28;20462;-54
2021/07/19 01:28:54;;;;;;;8.93;6.70;;;20.20;98.80;;;;;;5001159;28;20953;-53
2021/07/19 01:31:25;;;;;;;11.93;5.80;;;20.20;98.90;;;;;;5051111;28;20468;-53
2021/07/19 01:33:57;;;;;;;10.03;5.90;;;20.20;99.00;;;;;;5033941;28;20468;-53
2021/07/19 01:36:27;;;;;;;6.80;5.60;;;20.20;99.60;;;;;;5033574;28;20498;-54
2021/07/19 01:39:14;;;;;;;11.07;5.77;;;20.10;99.40;;;;;;5051312;28;20412;-53
2021/07/19 01:41:42;;;;;;;10.60;6.80;;;20.10;99.70;;;;;;5033635;28;20887;-53
2021/07/19 01:44:13;;;;;;;10.90;6.37;;;20.10;99.80;;;;;;5033662;28;20516;-53
2021/07/19 01:46:42;;;;;;;7.97;6.30;;;20.10;99.90;;;;;;5033310;28;20447;-53
2021/07/19 01:49:10;;;;;;;8.20;6.33;;;20.00;99.90;;;;;;5033069;28;20821;-53
2021/07/19 01:51:40;;;;;;;7.80;7.00;;;20.00;99.90;;;;;;5033345;28;20467;-53
2021/07/19 01:54:07;;;;;;;8.30;6.70;;;19.90;99.90;;;;;;5033525;28;20446;-53
2021/07/19 01:56:36;;;;;;;8.67;7.00;;;19.90;99.90;;;;;;5033274;28;20488;-53
2021/07/19 01:59:05;;;;;;;9.30;6.57;;;19.90;99.90;;;;;;5050724;28;20445;-52
2021/07/19 02:01:40;;;;;;;11.30;6.57;;;19.80;99.90;;;;;;5051036;28;20454;-53
2021/07/19 02:04:09;;;;;;;9.07;6.50;;;19.80;99.90;;;;;;5033260;28;20558;-53
2021/07/19 02:06:36;;;;;;;10.93;6.17;;;19.70;99.90;;;;;;5033115;28;20945;-53
2021/07/19 02:09:09;;;;;;;7.93;5.77;;;19.70;99.90;;;;;;5033146;28;20975;-53
2021/07/19 02:11:47;;;;;;;18.23;7.30;;;19.70;99.90;;;;;;5033184;28;20561;-53
2021/07/19 02:14:17;;;;;;;8.90;5.70;;;19.60;99.70;;;;;;5033020;28;20978;-53
2021/07/19 02:16:53;;;;;;;10.70;6.40;;;19.60;99.60;;;;;;5032803;28;20486;-53
2021/07/19 02:19:24;;;;;;;10.23;7.17;;;19.50;99.70;;;;;;5031594;28;20544;-55
2021/07/19 02:21:53;;;;;;;7.13;5.60;;;19.50;99.60;;;;;;5032385;28;20481;-54
2021/07/19 02:24:27;;;;;;;12.53;7.30;;;19.40;99.60;;;;;;5032922;28;20553;-54
2021/07/19 02:27:07;;;;;;;9.23;6.20;;;19.40;99.90;;;;;;5033332;28;20511;-53
2021/07/19 02:29:35;;;;;;;8.33;5.43;;;19.30;99.50;;;;;;5032696;28;20553;-54
2021/07/19 02:32:04;;;;;;;9.43;6.57;;;19.30;99.50;;;;;;5033019;28;20474;-53
2021/07/19 02:34:32;;;;;;;12.97;7.00;;;19.20;99.50;;;;;;5032934;28;20454;-54
2021/07/19 02:36:59;;;;;;;12.17;7.53;;;19.20;99.40;;;;;;5051435;28;20892;-53
2021/07/19 02:39:28;;;;;;;11.63;6.60;;;19.10;99.40;;;;;;5032779;28;20458;-53
2021/07/19 02:41:55;;;;;;;8.77;6.07;;;19.10;99.40;;;;;;5050847;28;20788;-53
2021/07/19 02:44:25;;;;;;;10.87;6.33;;;19.00;99.40;;;;;;5054048;28;20453;-53
2021/07/19 02:47:06;;;;;;;9.67;6.63;;;19.00;99.50;;;;;;5037095;28;20459;-54
2021/07/19 02:49:34;;;;;;;11.67;6.23;;;18.90;99.50;;;;;;5036659;28;20535;-54
2021/07/19 02:52:04;;;;;;;8.77;5.90;;;18.80;99.50;;;;;;5054558;28;20473;-54
2021/07/19 02:54:31;;;;;;;10.87;6.03;;;18.80;99.50;;;;;;5036703;28;20453;-53
2021/07/19 02:56:59;;;;;;;11.70;5.63;;;18.70;99.50;;;;;;5036518;28;20983;-53
2021/07/19 02:59:26;;;;;;;12.53;5.70;;;18.70;99.40;;;;;;5036517;28;20539;-53
2021/07/19 03:01:55;;;;;;;13.40;5.70;;;18.70;99.40;;;;;;5054624;28;20461;-54
2021/07/19 03:04:25;;;;;;;12.07;5.70;;;18.60;99.40;;;;;;5054325;28;21001;-53
2021/07/19 03:06:52;;;;;;;10.20;5.70;;;18.60;99.50;;;;;;5054690;28;20433;-53
2021/07/19 03:09:23;;;;;;;14.03;5.40;;;18.50;99.40;;;;;;5054274;28;20430;-54
2021/07/19 03:11:54;;;;;;;19.77;6.07;;;18.50;99.50;;;;;;5036247;28;21041;-54
2021/07/19 03:14:26;;;;;;;9.90;5.20;;;18.40;99.50;;;;;;5054296;28;20433;-53
2021/07/19 03:17:02;;;;;;;11.37;5.33;;;18.40;99.60;;;;;;5036232;28;20472;-53
2021/07/19 03:19:32;;;;;;;10.10;5.27;;;18.40;99.70;;;;;;5035880;28;20549;-54
2021/07/19 03:22:01;;;;;;;11.97;5.70;;;18.40;99.80;;;;;;5054237;28;20453;-53
2021/07/19 03:24:46;;;;;;;11.77;5.23;;;18.40;99.90;;;;;;5035939;28;20919;-52
2021/07/19 03:27:15;;;;;;;7.83;5.47;;;18.40;99.90;;;;;;5035964;28;20455;-53
2021/07/19 03:29:43;;;;;;;16.40;5.40;;;18.40;99.90;;;;;;5035629;28;20559;-53
2021/07/19 03:32:18;;;;;;;7.97;5.00;;;18.40;99.90;;;;;;5035993;28;20720;-53
2021/07/19 03:34:48;;;;;;;12.60;5.53;;;18.40;99.90;;;;;;5036122;28;20500;-53
2021/07/19 03:37:16;;;;;;;15.73;6.10;;;18.40;99.90;;;;;;5035617;28;20500;-54
2021/07/19 03:39:46;;;;;;;11.70;5.20;;;18.30;99.90;;;;;;5035574;28;20463;-53
2021/07/19 03:42:19;;;;;;;10.13;5.60;;;18.30;99.90;;;;;;5035462;28;20473;-53
2021/07/19 03:44:51;;;;;;;8.70;5.03;;;18.40;99.90;;;;;;5053269;28;20421;-53
2021/07/19 03:47:21;;;;;;;9.17;5.27;;;18.40;99.90;;;;;;5035558;28;20449;-54
2021/07/19 03:49:52;;;;;;;12.40;5.50;;;18.40;99.90;;;;;;5035512;28;20449;-54
2021/07/19 03:52:19;;;;;;;12.57;5.33;;;18.40;99.90;;;;;;5035385;28;20479;-53
2021/07/19 03:54:48;;;;;;;15.27;6.00;;;18.50;99.80;;;;;;5034837;28;20450;-53
2021/07/19 03:57:15;;;;;;;14.40;5.83;;;18.40;99.50;;;;;;5035596;28;20581;-54
2021/07/19 03:59:43;;;;;;;18.60;6.20;;;18.50;99.50;;;;;;5053061;28;20855;-53
2021/07/19 04:02:19;;;;;;;10.30;5.40;;;18.30;99.20;;;;;;5034947;28;20493;-53
2021/07/19 04:05:01;;;;;;;13.60;5.57;;;18.50;99.20;;;;;;5035202;28;20503;-53
2021/07/19 04:07:29;;;;;;;10.03;5.23;;;18.40;98.90;;;;;;5034955;28;20480;-53
2021/07/19 04:09:57;;;;;;;13.30;6.03;;;18.30;98.80;;;;;;5034969;28;20965;-53
2021/07/19 04:12:26;;;;;;;12.10;5.20;;;18.40;98.70;;;;;;5035067;28;20473;-54
2021/07/19 04:14:53;;;;;;;12.70;4.67;;;18.10;98.60;;;;;;5035441;28;20800;-54
2021/07/19 04:17:21;;;;;;;11.27;5.27;;;18.50;98.70;;;;;;5034639;28;20509;-53
2021/07/19 04:19:48;;;;;;;12.57;4.87;;;18.50;98.40;;;;;;5052699;28;20430;-54
2021/07/19 04:22:19;;;;;;;16.23;4.90;;;18.50;98.30;;;;;;5034458;28;20677;-53
2021/07/19 04:24:54;;;;;;;14.50;5.93;;;18.40;98.10;;;;;;5034310;28;20458;-54
2021/07/19 04:27:22;;;;;;;10.27;4.87;;;18.50;98.00;;;;;;5052684;28;20437;-54
2021/07/19 04:29:50;;;;;;;10.33;4.60;;;18.50;97.90;;;;;;5052269;28;20452;-54
2021/07/19 04:32:20;;;;;;;11.80;4.93;;;18.50;97.70;;;;;;5034470;28;20840;-54
2021/07/19 04:34:48;;;;;;;9.27;4.53;;;18.60;97.60;;;;;;5034828;28;21029;-55
2021/07/19 04:37:17;;;;;;;13.97;6.07;;;18.60;97.60;;;;;;5034394;28;20833;-54
2021/07/19 04:39:46;;;;;;;16.03;5.00;;;18.40;97.30;;;;;;5034085;28;20453;-54
2021/07/19 04:42:19;;;;;;;14.10;4.63;;;18.60;97.30;;;;;;5052162;28;20520;-52
2021/07/19 04:44:46;;;;;;;9.60;4.80;;;18.70;96.90;;;;;;5052296;28;20445;-54
2021/07/19 04:47:12;;;;;;;17.50;6.07;;;18.70;96.80;;;;;;5052288;28;20874;-54
2021/07/19 04:49:40;;;;;;;8.37;4.77;;;18.60;96.70;;;;;;5052064;28;20460;-54
2021/07/19 04:52:07;;;;;;;12.93;4.50;;;18.50;96.60;;;;;;5051903;28;20861;-53
2021/07/19 04:54:38;;;;;;;12.67;5.13;;;18.70;96.60;;;;;;5033744;28;20989;-54
2021/07/19 04:57:07;;;;;;;13.93;5.13;;;18.60;96.50;;;;;;5052342;28;20477;-54
2021/07/19 04:59:40;;;;;;;10.97;5.00;;;19.00;96.50;;;;;;5051900;28;20565;-54
2021/07/19 05:02:10;;;;;;;12.63;5.80;;;19.10;96.20;;;;;;5066913;22;20486;-55
2021/07/19 05:04:37;;;;;;;12.47;4.70;;;19.10;96.00;;;;;;5034274;28;20454;-52
2021/07/19 05:07:05;;;;;;;14.47;5.27;;;19.10;95.70;;;;;;5051388;28;20426;-55
2021/07/19 05:09:32;;;;;;;12.37;4.90;;;19.10;95.50;;;;;;5033461;28;20907;-54
2021/07/19 05:12:00;;;;;;;11.40;5.20;;;19.10;95.30;;;;;;5051838;28;20969;-55
2021/07/19 05:14:27;;;;;;;14.77;5.70;;;19.20;95.40;;;;;;5051865;28;20449;-54
2021/07/19 05:16:56;;;;;;;8.90;4.40;;;19.20;95.20;;;;;;5051988;28;20973;-53
2021/07/19 05:19:24;;;;;;;12.83;5.03;;;19.20;95.00;;;;;;5051690;28;20445;-54
2021/07/19 05:21:51;;;;;;;8.23;5.23;;;19.10;94.80;;;;;;5051519;28;20454;-53
2021/07/19 05:24:17;;;;;;;8.80;5.30;;;19.30;94.70;;;;;;5051718;28;20786;-55
2021/07/19 05:26:45;;;;;;;10.93;5.63;;;19.20;94.70;;;;;;5051615;28;20525;-53
2021/07/19 05:29:13;;;;;;;9.10;5.20;;;19.00;94.40;;;;;;5051561;28;20804;-53
2021/07/19 05:31:39;;;;;;;11.03;4.90;;;19.20;94.60;;;;;;5051482;28;20450;-53
2021/07/19 05:34:06;;;;;;;13.47;5.40;;;19.00;94.70;;;;;;5051940;28;20791;-53
2021/07/19 05:36:33;;;;;;;8.70;5.50;;;19.00;94.70;;;;;;5052463;28;20445;-54
2021/07/19 05:39:00;;;;;;;14.60;6.57;;;19.00;94.70;;;;;;5054086;28;20930;-56
2021/07/19 05:41:26;;;;;;;11.33;5.43;;;19.10;94.80;;;;;;5051506;28;20447;-55
2021/07/19 05:43:53;;;;;;;17.47;5.93;;;19.20;94.80;;;;;;5033488;28;20498;-55
2021/07/19 05:46:21;;;;;;;17.27;5.77;;;19.40;94.60;;;;;;5051107;28;20441;-55
2021/07/19 05:48:47;;;;;;;9.10;4.83;;;19.30;94.10;;;;;;5051085;28;20423;-54
2021/07/19 05:51:14;;;;;;;8.57;4.93;;;19.70;94.00;;;;;;5051231;28;20427;-55
2021/07/19 05:53:41;;;;;;;9.63;5.50;;;19.70;93.80;;;;;;5051121;28;20533;-55
2021/07/19 05:56:09;;;;;;;9.93;5.43;;;19.90;93.80;;;;;;5051265;28;20482;-54
2021/07/19 05:58:36;;;;;;;13.33;5.77;;;19.90;93.60;;;;;;5032556;28;20481;-55
2021/07/19 06:01:03;;;;;;;10.03;5.43;;;19.90;93.30;;;;;;5050969;28;20435;-56
2021/07/19 06:03:31;;;;;;;10.00;5.53;;;19.70;93.60;;;;;;5050975;28;20477;-54
2021/07/19 06:05:58;;;;;;;13.60;5.60;;;19.80;93.30;;;;;;5050883;28;20438;-55
2021/07/19 06:08:24;;;;;;;14.73;6.40;;;19.70;93.30;;;;;;5050982;28;20470;-55
2021/07/19 06:10:51;;;;;;;15.40;6.30;;;19.80;93.40;;;;;;5050959;28;20434;-55
2021/07/19 06:13:17;;;;;;;14.87;6.03;;;19.90;93.40;;;;;;5051063;28;20805;-56
2021/07/19 06:15:45;;;;;;;11.73;6.87;;;19.70;93.10;;;;;;5050762;28;20436;-55
2021/07/19 06:18:12;;;;;;;9.50;6.10;;;19.80;93.20;;;;;;5050160;28;20473;-56
2021/07/19 06:20:40;;;;;;;12.27;6.23;;;19.90;93.20;;;;;;5050790;28;20441;-56
2021/07/19 06:23:06;;;;;;;14.17;5.60;;;19.80;93.10;;;;;;5051104;28;20793;-55
2021/07/19 06:25:34;;;;;;;13.00;6.80;;;19.80;93.00;;;;;;5050873;28;20885;-56
2021/07/19 06:28:02;;;;;;;14.73;6.87;;;19.90;93.10;;;;;;5051026;28;20437;-56
2021/07/19 06:30:29;;;;;;;12.10;6.10;;;19.90;93.40;;;;;;5050317;28;20432;-55
2021/07/19 06:32:56;;;;;;;14.43;7.60;;;19.90;93.10;;;;;;5050943;28;20478;-56
2021/07/19 06:35:23;;;;;;;11.97;5.30;;;20.10;92.90;;;;;;5050973;28;20441;-56
2021/07/19 06:37:51;;;;;;;12.80;6.87;;;20.10;92.70;;;;;;5050541;28;20489;-55
2021/07/19 06:40:19;;;;;;;11.37;6.70;;;20.20;92.70;;;;;;5032559;28;20478;-56
2021/07/19 06:42:46;;;;;;;12.60;7.50;;;20.50;92.60;;;;;;5050913;28;20795;-55
2021/07/19 06:45:14;;;;;;;16.43;7.13;;;20.30;92.30;;;;;;5050448;28;20443;-56
2021/07/19 06:47:42;;;;;;;12.47;6.60;;;20.70;92.50;;;;;;5050509;28;20438;-54
2021/07/19 06:50:11;;;;;;;10.00;6.03;;;20.60;92.30;;;;;;5054885;28;20755;-56
2021/07/19 06:52:38;;;;;;;14.67;6.70;;;20.70;92.00;;;;;;5052772;28;20459;-55
2021/07/19 06:55:08;;;;;;;13.63;7.23;;;20.80;92.00;;;;;;5050400;28;20439;-56
2021/07/19 06:57:35;;;;;;;13.07;6.97;;;20.80;92.00;;;;;;5050342;28;20549;-55
2021/07/19 07:00:02;;;;;;;8.80;6.97;;;20.90;92.10;;;;;;5032037;28;20450;-57
2021/07/19 07:02:29;;;;;;;13.70;6.70;;;20.90;91.90;;;;;;5031735;28;20518;-55
2021/07/19 07:04:55;;;;;;;8.80;6.10;;;21.10;91.70;;;;;;5050294;28;20435;-56
2021/07/19 07:07:22;;;;;;;13.30;6.90;;;21.20;91.60;;;;;;5032371;28;20538;-57
2021/07/19 07:09:49;;;;;;;13.87;7.00;;;21.30;91.40;;;;;;5050198;28;20432;-57
2021/07/19 07:12:17;;;;;;;12.67;7.10;;;21.40;91.30;;;;;;5049886;28;20465;-56
2021/07/19 07:14:43;;;;;;;9.13;6.80;;;21.50;91.10;;;;;;5050606;28;20544;-56
2021/07/19 07:17:10;;;;;;;13.17;7.20;;;21.50;90.90;;;;;;5050105;28;20440;-56
2021/07/19 07:19:37;;;;;;;12.50;6.60;;;21.60;90.60;;;;;;5050067;28;20490;-56
2021/07/19 07:22:04;;;;;;;10.33;6.97;;;21.50;90.40;;;;;;5050151;28;20993;-53
2021/07/19 07:24:31;;;;;;;13.53;7.20;;;21.50;90.40;;;;;;5050334;28;20443;-52
2021/07/19 07:26:58;;;;;;;8.47;6.43;;;21.50;90.50;;;;;;5050249;28;20462;-56
2021/07/19 07:29:25;;;;;;;14.60;6.23;;;21.40;90.40;;;;;;5051791;28;20447;-51
2021/07/19 07:31:52;;;;;;;11.80;7.67;;;21.50;90.30;;;;;;5053842;28;20970;-52
2021/07/19 07:34:19;;;;;;;10.77;7.40;;;21.50;90.30;;;;;;5054258;28;20437;-52
2021/07/19 07:36:45;;;;;;;11.60;6.80;;;21.60;90.30;;;;;;5053823;28;20437;-55
2021/07/19 07:39:12;;;;;;;8.30;6.47;;;21.60;90.40;;;;;;5035319;28;20856;-53
2021/07/19 07:41:39;;;;;;;10.20;6.60;;;21.70;90.10;;;;;;5053230;28;21012;-53
2021/07/19 07:44:05;;;;;;;9.43;6.90;;;21.80;90.10;;;;;;5053654;28;20592;-52
2021/07/19 07:46:33;;;;;;;7.50;6.10;;;21.90;89.40;;;;;;5054078;28;20429;-53
2021/07/19 07:49:00;;;;;;;10.97;6.63;;;21.80;89.10;;;;;;5053505;28;20440;-53
2021/07/19 07:51:27;;;;;;;9.97;7.07;;;21.90;89.00;;;;;;5053213;28;20429;-53
2021/07/19 07:53:54;;;;;;;12.07;7.27;;;22.00;88.50;;;;;;5053309;28;20446;-52
2021/07/19 07:56:20;;;;;;;9.40;7.53;;;22.00;88.10;;;;;;5053362;28;20428;-53
2021/07/19 07:58:47;;;;;;;13.87;7.17;;;22.00;88.40;;;;;;5053028;28;20541;-53
2021/07/19 08:01:14;;;;;;;11.70;7.23;;;21.70;87.80;;;;;;5053278;28;20440;-53
2021/07/19 08:03:43;;;;;;;10.80;7.50;;;22.10;87.50;;;;;;5056174;28;20477;-51
2021/07/19 08:06:09;;;;;;;11.80;8.00;;;22.20;87.00;;;;;;5053643;28;20434;-53
2021/07/19 08:08:36;;;;;;;11.10;7.00;;;22.30;87.00;;;;;;5052754;28;20438;-56
2021/07/19 08:11:04;;;;;;;10.97;7.43;;;22.20;86.10;;;;;;5035130;28;20464;-55
2021/07/19 08:13:31;;;;;;;11.77;7.83;;;22.10;85.50;;;;;;5053137;28;20925;-56
2021/07/19 08:15:57;;;;;;;8.00;7.20;;;22.00;85.60;;;;;;5053360;28;20448;-58
2021/07/19 08:18:24;;;;;;;7.67;6.67;;;22.00;86.40;;;;;;5052513;28;20501;-55
2021/07/19 08:20:52;;;;;;;14.47;8.03;;;21.70;85.80;;;;;;5053134;28;20441;-56
2021/07/19 08:23:19;;;;;;;8.00;7.20;;;21.80;86.00;;;;;;5052738;28;20975;-57
2021/07/19 08:25:46;;;;;;;10.73;7.77;;;21.80;85.10;;;;;;5053033;28;20430;-56
2021/07/19 08:28:13;;;;;;;13.13;6.97;;;21.80;84.90;;;;;;5052507;28;20792;-56
2021/07/19 08:30:40;;;;;;;13.50;7.77;;;21.70;84.50;;;;;;5052941;28;20442;-58
2021/07/19 08:33:07;;;;;;;12.33;6.90;;;21.90;83.80;;;;;;5053054;28;20483;-57
2021/07/19 08:35:34;;;;;;;12.40;7.60;;;22.00;83.70;;;;;;5052739;28;20459;-57
2021/07/19 08:38:02;;;;;;;7.70;6.80;;;22.20;84.50;;;;;;5052616;28;20587;-56
2021/07/19 08:40:29;;;;;;;8.93;7.13;;;22.40;83.80;;;;;;5051197;28;20439;-53
2021/07/19 08:42:57;;;;;;;10.00;6.90;;;22.40;82.80;;;;;;5052713;28;20962;-56
2021/07/19 08:45:24;;;;;;;9.97;6.73;;;22.40;82.20;;;;;;5052754;28;20789;-56
2021/07/19 08:47:53;;;;;;;11.27;7.63;;;22.50;82.40;;;;;;5052393;28;20438;-56
2021/07/19 08:50:22;;;;;;;11.50;7.10;;;22.60;82.70;;;;;;5052001;28;20610;-56
2021/07/19 08:52:53;;;;;;;12.87;7.60;;;22.50;82.80;;;;;;5052299;28;20511;-57
2021/07/19 08:55:21;;;;;;;7.43;5.80;;;22.70;82.80;;;;;;5052516;28;20829;-56
2021/07/19 08:57:49;;;;;;;12.67;7.60;;;22.70;82.70;;;;;;5052354;28;20484;-57
2021/07/19 09:00:17;;;;;;;9.90;7.60;;;22.90;82.00;;;;;;5052082;28;20953;-56
2021/07/19 09:02:44;;;;;;;10.83;6.27;;;23.00;81.40;;;;;;5052157;28;20470;-55
2021/07/19 09:05:12;;;;;;;14.70;7.13;;;23.00;80.50;;;;;;5052027;28;20761;-56
2021/07/19 09:07:39;;;;;;;8.43;7.47;;;23.00;80.50;;;;;;5051632;28;20469;-56
2021/07/19 09:10:09;;;;;;;12.87;6.50;;;23.10;80.80;;;;;;5051962;28;20794;-55
2021/07/19 09:12:39;;;;;;;13.23;6.27;;;23.20;80.10;;;;;;5051769;28;20482;-55
2021/07/19 09:15:08;;;;;;;12.10;6.17;;;23.50;80.20;;;;;;5053605;28;20427;-57
2021/07/19 09:17:35;;;;;;;12.70;6.30;;;23.20;79.70;;;;;;5052039;28;20543;-56
2021/07/19 09:20:02;;;;;;;9.97;6.67;;;23.10;79.80;;;;;;5051502;28;20440;-56
2021/07/19 09:22:30;;;;;;;11.77;7.00;;;23.00;79.40;;;;;;5051518;28;20458;-56
2021/07/19 09:25:11;;;;;;;16.80;7.43;;;22.90;79.10;;;;;;5051746;28;20573;-56
2021/07/19 09:27:51;;;;;;;10.63;6.37;;;22.90;79.10;;;;;;5033590;28;20443;-57
2021/07/19 09:30:19;;;;;;;8.20;5.30;;;22.80;79.60;;;;;;5051374;28;20604;-57
2021/07/19 09:32:58;;;;;;;9.10;6.80;;;22.70;79.00;;;;;;5051197;28;21032;-57
2021/07/19 09:35:25;;;;;;;10.00;6.40;;;22.80;79.00;;;;;;5051461;28;20440;-56
2021/07/19 09:37:52;;;;;;;10.00;6.10;;;22.80;79.40;;;;;;5051474;28;20444;-56
2021/07/19 09:40:28;;;;;;;10.70;6.80;;;22.80;79.10;;;;;;5051184;28;20430;-56
2021/07/19 09:42:56;;;;;;;9.37;6.27;;;22.80;79.40;;;;;;5051584;28;20538;-55
2021/07/19 09:45:25;;;;;;;8.30;5.53;;;22.80;79.10;;;;;;5051304;28;20533;-55
2021/07/19 09:48:00;;;;;;;8.50;6.83;;;22.50;79.10;;;;;;5051177;28;20431;-56
2021/07/19 09:50:26;;;;;;;11.57;5.73;;;22.80;79.40;;;;;;5051331;28;20441;-55
2021/07/19 09:52:53;;;;;;;8.20;7.17;;;22.80;79.30;;;;;;5032798;28;20484;-55
2021/07/19 09:55:23;;;;;;;7.60;5.93;;;22.90;79.50;;;;;;5051144;28;21009;-55
2021/07/19 09:57:54;;;;;;;8.43;6.13;;;23.10;79.20;;;;;;5051105;28;20961;-54
2021/07/19 10:00:22;;;;;;;10.80;6.17;;;23.10;79.00;;;;;;5050502;28;20434;-53
2021/07/19 10:02:50;;;;;;;11.07;6.13;;;23.10;78.60;;;;;;5032970;28;20863;-55
2021/07/19 10:05:25;;;;;;;8.10;5.80;;;23.20;78.40;;;;;;5050679;28;20460;-56
2021/07/19 10:07:52;;;;;;;7.30;6.50;;;23.30;77.50;;;;;;5051200;28;20469;-56
2021/07/19 10:10:18;;;;;;;6.00;5.27;;;23.20;77.70;;;;;;5050461;28;20514;-56
2021/07/19 10:12:45;;;;;;;7.33;6.47;;;23.10;78.00;;;;;;5033265;28;20813;-55
2021/07/19 10:15:12;;;;;;;12.97;6.80;;;23.00;77.90;;;;;;5050947;28;20428;-57
2021/07/19 10:17:42;;;;;;;9.00;6.17;;;22.90;78.30;;;;;;5050857;28;20530;-56
2021/07/19 10:20:09;;;;;;;11.53;4.97;;;22.80;78.80;;;;;;5050392;28;20968;-56
2021/07/19 10:22:37;;;;;;;8.43;6.17;;;22.70;78.70;;;;;;5050850;28;20461;-57
2021/07/19 10:25:05;;;;;;;12.60;6.33;;;22.50;79.20;;;;;;5052810;28;20542;-56
2021/07/19 10:27:36;;;;;;;9.23;6.73;;;22.50;79.60;;;;;;5051626;28;20795;-56
2021/07/19 10:30:07;;;;;;;8.83;5.77;;;22.30;79.80;;;;;;5050102;28;20472;-54
2021/07/19 10:32:36;;;;;;;11.87;7.10;;;22.20;80.70;;;;;;5050855;28;20454;-55
2021/07/19 10:35:06;;;;;;;8.90;6.30;;;21.90;81.00;;;;;;5050913;28;20446;-56
2021/07/19 10:37:39;;;;;;;15.00;6.00;;;22.10;81.80;;;;;;5051069;28;20444;-56
2021/07/19 10:40:11;;;;;;;9.13;5.47;;;22.00;82.30;;;;;;5050182;28;20470;-56
2021/07/19 10:42:40;;;;;;;7.83;5.87;;;22.10;82.40;;;;;;5050589;28;20939;-56
2021/07/19 10:45:09;;;;;;;7.23;5.23;;;22.10;82.50;;;;;;5050569;28;20442;-56
2021/07/19 10:47:46;;;;;;;9.77;5.83;;;22.10;82.70;;;;;;5032426;28;20469;-56
2021/07/19 10:50:19;;;;;;;6.57;5.70;;;22.30;82.80;;;;;;5050245;28;20471;-56
2021/07/19 10:52:46;;;;;;;8.90;5.30;;;22.40;82.80;;;;;;5050270;28;20909;-55
2021/07/19 10:55:25;;;;;;;8.03;5.27;;;22.20;82.00;;;;;;5050164;28;20533;-55
2021/07/19 10:58:01;;;;;;;6.83;4.80;;;22.40;81.50;;;;;;5050724;28;20919;-55
2021/07/19 11:00:28;;;;;;;8.67;4.30;;;22.30;81.80;;;;;;5050775;28;20477;-55
2021/07/19 11:03:01;;;;;;;8.27;4.83;;;22.30;81.40;;;;;;5074089;22;20516;-51
2021/07/19 11:05:35;;;;;;;11.47;5.37;;;22.30;80.40;;;;;;5054368;28;20438;-54
2021/07/19 11:08:02;;;;;;;10.13;5.20;;;22.30;81.00;;;;;;5053954;28;20426;-52
2021/07/19 11:10:28;;;;;;;17.63;8.10;;;22.20;80.50;;;;;;5054446;28;20434;-53
2021/07/19 11:12:56;;;;;;;7.50;3.70;;;22.40;80.30;;;;;;5054599;28;20830;-53
2021/07/19 11:15:33;;;;;;;7.40;4.80;;;22.50;79.90;;;;;;5054470;28;20431;-53
2021/07/19 11:18:12;;;;;;;6.20;4.17;;;22.20;79.80;;;;;;5054275;28;20438;-52
2021/07/19 11:20:42;;;;;;;8.33;4.70;;;22.40;80.20;;;;;;5054440;28;20437;-53
2021/07/19 11:23:11;;;;;;;6.57;4.73;;;22.30;79.90;;;;;;5053739;28;20564;-53
2021/07/19 11:25:42;;;;;;;4.97;3.53;;;22.70;80.00;;;;;;5054060;28;20430;-54
2021/07/19 11:28:19;;;;;;;5.17;3.30;;;22.80;79.20;;;;;;5054005;28;20526;-53
2021/07/19 11:31:06;;;;;;;8.20;4.37;;;22.90;77.70;;;;;;5054233;28;20434;-53
2021/07/19 11:33:34;;;;;;;6.30;4.07;;;22.60;77.30;;;;;;5053899;28;20453;-52
2021/07/19 11:36:15;;;;;;;5.27;3.53;;;23.00;77.70;;;;;;5053814;28;20433;-53
2021/07/19 11:38:42;;;;;;;5.00;3.33;;;23.10;76.70;;;;;;5053539;28;20467;-53
2021/07/19 11:41:20;;;;;;;5.40;4.57;;;22.90;76.30;;;;;;5054008;28;20426;-54
2021/07/19 11:43:48;;;;;;;6.10;3.70;;;22.90;75.80;;;;;;5053761;28;20481;-50
2021/07/19 11:46:23;;;;;;;8.70;3.60;;;23.00;76.00;;;;;;5053957;28;20440;-53
2021/07/19 11:48:51;;;;;;;6.63;3.77;;;23.10;76.20;;;;;;5053898;28;20776;-54
2021/07/19 11:51:21;;;;;;;5.07;3.47;;;23.30;76.30;;;;;;5053749;28;20503;-52
2021/07/19 11:53:48;;;;;;;4.30;3.27;;;23.50;76.20;;;;;;5035912;28;20471;-53
2021/07/19 11:56:15;;;;;;;8.00;4.07;;;23.50;75.70;;;;;;5053756;28;20784;-51
2021/07/19 11:58:43;;;;;;;6.90;3.90;;;23.70;75.20;;;;;;5053096;28;20436;-51
2021/07/19 12:01:11;;;;;;;8.10;4.20;;;23.80;75.10;;;;;;5035593;28;20456;-51
2021/07/19 12:03:38;;;;;;;8.60;5.20;;;23.70;74.20;;;;;;5053594;28;20485;-52
2021/07/19 12:06:05;;;;;;;4.63;3.40;;;23.70;74.30;;;;;;5035449;28;20970;-52
2021/07/19 12:08:36;;;;;;;5.73;3.77;;;23.80;73.90;;;;;;5053041;28;20428;-51
2021/07/19 12:11:04;;;;;;;7.03;4.07;;;23.80;74.00;;;;;;5035353;28;20449;-52
2021/07/19 12:13:36;;;;;;;6.00;4.03;;;23.60;74.40;;;;;;5053191;28;20474;-52
2021/07/19 12:16:04;;;;;;;8.00;4.87;;;23.60;75.00;;;;;;5052548;28;20739;-52
2021/07/19 12:18:32;;;;;;;6.90;4.30;;;23.70;75.70;;;;;;5052760;28;20491;-52
2021/07/19 12:21:00;;;;;;;5.50;3.67;;;23.70;75.60;;;;;;5053013;28;20451;-52
2021/07/19 12:23:39;;;;;;;6.87;4.73;;;23.60;75.50;;;;;;5052945;28;20546;-52
2021/07/19 12:26:06;;;;;;;9.60;4.60;;;23.50;75.70;;;;;;5053319;28;20439;-51
2021/07/19 12:28:32;;;;;;;5.27;3.80;;;23.40;75.70;;;;;;5052826;28;20432;-52
2021/07/19 12:31:13;;;;;;;8.90;4.77;;;23.40;76.00;;;;;;5053949;28;20435;-53
2021/07/19 12:33:39;;;;;;;7.80;5.40;;;23.40;76.50;;;;;;5052902;28;20465;-51
2021/07/19 12:36:06;;;;;;;8.50;4.60;;;23.40;76.50;;;;;;5052971;28;20449;-51
2021/07/19 12:42:23;;;;;;;7.90;4.90;;;23.50;77.50;;;;;;5052641;28;20427;-51
2021/07/19 12:44:52;;;;;;;7.40;4.43;;;23.30;77.20;;;;;;5053117;28;20432;-51
2021/07/19 12:47:20;;;;;;;7.40;4.30;;;23.40;77.40;;;;;;5052996;28;20442;-51
2021/07/19 12:49:47;;;;;;;6.50;3.87;;;23.40;76.40;;;;;;5052319;28;20436;-50
2021/07/19 12:52:16;;;;;;;5.80;4.60;;;23.50;76.10;;;;;;5053085;28;20463;-51
2021/07/19 12:54:54;;;;;;;7.33;4.70;;;23.70;76.20;;;;;;5053120;28;20433;-51